createdAt,value
2018-11-11T00:02:07.468Z,3.63
2018-11-11T00:04:36.174Z,3.53
2018-11-11T00:07:05.125Z,4.17
2018-11-11T00:09:33.780Z,3.23
2018-11-11T00:12:02.426Z,3.70
2018-11-11T00:14:31.060Z,4.43
2018-11-11T00:16:59.644Z,3.80
2018-11-11T00:19:28.342Z,4.30
2018-11-11T00:21:56.956Z,5.03
2018-11-11T00:24:25.580Z,3.67
2018-11-11T00:26:54.247Z,4.37
2018-11-11T00:29:22.874Z,4.63
2018-11-11T00:31:51.656Z,4.57
2018-11-11T00:34:20.288Z,4.47
2018-11-11T00:36:48.900Z,4.60
2018-11-11T00:39:17.569Z,4.50
2018-11-11T00:41:46.169Z,4.37
2018-11-11T00:44:14.929Z,4.50
2018-11-11T00:46:43.587Z,4.37
2018-11-11T00:49:12.208Z,4.23
2018-11-11T00:51:40.995Z,4.60
2018-11-11T00:54:09.648Z,4.27
2018-11-11T00:56:38.245Z,4.30
2018-11-11T00:59:07.264Z,4.33
2018-11-11T01:01:35.946Z,4.20
2018-11-11T01:04:05.054Z,4.60
2018-11-11T01:06:33.893Z,3.93
2018-11-11T01:09:02.556Z,3.53
2018-11-11T01:11:31.221Z,4.07
2018-11-11T01:13:59.835Z,4.10
2018-11-11T01:16:28.457Z,4.40
2018-11-11T01:18:57.100Z,4.47
2018-11-11T01:21:26.169Z,4.10
2018-11-11T01:23:54.839Z,4.20
2018-11-11T01:26:23.513Z,4.27
2018-11-11T01:28:52.209Z,4.80
2018-11-11T01:31:20.907Z,4.37
2018-11-11T01:33:49.571Z,4.37
2018-11-11T01:36:18.338Z,4.30
2018-11-11T01:38:47.039Z,3.70
2018-11-11T01:41:15.706Z,4.23
2018-11-11T01:43:44.408Z,4.43
2018-11-11T01:46:13.011Z,4.30
2018-11-11T01:48:41.646Z,3.40
2018-11-11T01:51:10.296Z,4.00
2018-11-11T01:53:38.970Z,4.33
2018-11-11T01:56:07.717Z,3.63
2018-11-11T01:58:36.380Z,3.57
2018-11-11T02:01:05.370Z,3.40
2018-11-11T02:03:34.004Z,3.47
2018-11-11T02:06:02.723Z,3.70
2018-11-11T02:08:31.354Z,3.33
2018-11-11T02:10:59.988Z,4.20
2018-11-11T02:13:28.748Z,3.93
2018-11-11T02:15:57.365Z,3.43
2018-11-11T02:18:26.006Z,4.00
2018-11-11T02:20:54.705Z,4.00
2018-11-11T02:23:23.357Z,3.60
2018-11-11T02:25:52.139Z,3.70
2018-11-11T02:28:20.753Z,3.43
2018-11-11T02:30:49.425Z,3.50
2018-11-11T02:33:18.062Z,3.63
2018-11-11T02:35:46.756Z,4.03
2018-11-11T02:38:15.397Z,3.13
2018-11-11T02:40:43.965Z,3.50
2018-11-11T02:43:12.629Z,4.03
2018-11-11T02:45:41.264Z,3.70
2018-11-11T02:48:09.938Z,3.57
2018-11-11T02:50:38.569Z,3.40
2018-11-11T02:53:07.216Z,3.63
2018-11-11T02:55:35.856Z,3.60
2018-11-11T02:58:04.539Z,3.67
2018-11-11T03:00:33.176Z,3.10
2018-11-11T03:03:01.842Z,3.43
2018-11-11T03:05:30.502Z,3.80
2018-11-11T03:07:59.159Z,3.87
2018-11-11T03:10:27.851Z,3.90
2018-11-11T03:12:56.510Z,3.47
2018-11-11T03:15:25.151Z,3.80
2018-11-11T03:17:53.945Z,3.77
2018-11-11T03:20:22.577Z,3.60
2018-11-11T03:22:51.225Z,4.07
2018-11-11T03:25:19.892Z,3.43
2018-11-11T03:27:48.520Z,3.37
2018-11-11T03:30:18.185Z,3.10
2018-11-11T03:32:46.920Z,3.67
2018-11-11T03:35:15.806Z,3.73
2018-11-11T03:37:45.368Z,3.90
2018-11-11T03:40:16.551Z,2.97
2018-11-11T03:42:45.532Z,3.23
2018-11-11T03:45:15.568Z,3.53
2018-11-11T03:47:45.273Z,3.00
2018-11-11T03:50:13.982Z,3.37
2018-11-11T03:52:43.023Z,2.67
2018-11-11T03:55:11.961Z,3.30
2018-11-11T03:57:40.595Z,3.50
2018-11-11T04:00:11.655Z,3.50
2018-11-11T04:02:40.380Z,3.63
2018-11-11T04:05:10.332Z,2.93
2018-11-11T04:07:39.260Z,3.07
2018-11-11T04:10:10.129Z,3.90
2018-11-11T04:12:39.089Z,3.20
2018-11-11T04:15:09.317Z,3.07
2018-11-11T04:17:38.518Z,3.40
2018-11-11T04:20:09.132Z,2.50
2018-11-11T04:22:37.830Z,2.80
2018-11-11T04:25:06.652Z,2.90
2018-11-11T04:27:35.418Z,2.30
2018-11-11T04:30:04.177Z,2.60
2018-11-11T04:32:32.824Z,2.90
2018-11-11T04:35:01.594Z,2.90
2018-11-11T04:37:30.212Z,2.80
2018-11-11T04:39:58.863Z,2.40
2018-11-11T04:42:27.548Z,2.47
2018-11-11T04:44:56.334Z,2.73
2018-11-11T04:47:25.251Z,2.63
2018-11-11T04:49:53.975Z,2.40
2018-11-11T04:52:22.744Z,2.00
2018-11-11T04:54:51.344Z,2.20
2018-11-11T04:57:19.995Z,1.87
2018-11-11T04:59:48.645Z,2.07
2018-11-11T05:02:17.252Z,4.30
2018-11-11T05:04:46.000Z,2.07
2018-11-11T05:07:14.553Z,2.07
2018-11-11T05:09:43.232Z,2.43
2018-11-11T05:12:11.888Z,2.33
2018-11-11T05:14:40.550Z,1.80
2018-11-11T05:17:09.176Z,2.53
2018-11-11T05:19:37.800Z,1.97
2018-11-11T05:22:07.182Z,1.73
2018-11-11T05:24:35.867Z,1.90
2018-11-11T05:27:04.742Z,2.07
2018-11-11T05:29:33.496Z,1.70
2018-11-11T05:32:02.128Z,1.87
2018-11-11T05:34:30.768Z,2.20
2018-11-11T05:36:59.465Z,2.33
2018-11-11T05:39:28.109Z,2.00
2018-11-11T05:41:56.744Z,2.20
2018-11-11T05:44:25.405Z,2.00
2018-11-11T05:46:54.028Z,1.90
2018-11-11T05:49:22.948Z,2.00
2018-11-11T05:51:51.631Z,1.93
2018-11-11T05:54:20.274Z,2.10
2018-11-11T05:56:48.967Z,1.70
2018-11-11T05:59:17.613Z,1.67
2018-11-11T06:01:46.297Z,2.50
2018-11-11T06:04:14.926Z,2.13
2018-11-11T06:06:43.637Z,2.60
2018-11-11T06:09:12.255Z,1.83
2018-11-11T06:11:40.925Z,1.97
2018-11-11T06:14:09.635Z,2.00
2018-11-11T06:16:38.294Z,1.97
2018-11-11T06:19:06.963Z,2.00
2018-11-11T06:21:35.597Z,2.60
2018-11-11T06:24:04.301Z,2.40
2018-11-11T06:26:32.966Z,1.60
2018-11-11T06:29:01.589Z,1.80
2018-11-11T06:31:30.236Z,2.30
2018-11-11T06:33:58.980Z,1.90
2018-11-11T06:36:27.603Z,2.30
2018-11-11T06:38:56.271Z,3.00
2018-11-11T06:41:24.897Z,2.20
2018-11-11T06:43:53.538Z,2.27
2018-11-11T06:46:22.172Z,1.70
2018-11-11T06:48:50.809Z,1.90
2018-11-11T06:51:19.472Z,1.60
2018-11-11T06:53:48.141Z,1.90
2018-11-11T06:56:16.769Z,1.90
2018-11-11T06:58:45.407Z,1.90
2018-11-11T07:01:14.082Z,1.50
2018-11-11T07:03:50.560Z,1.70
2018-11-11T07:06:19.341Z,1.57
2018-11-11T07:08:47.970Z,2.67
2018-11-11T07:11:17.316Z,2.73
2018-11-11T07:13:45.945Z,2.30
2018-11-11T07:16:14.776Z,4.73
2018-11-11T07:18:44.208Z,3.10
2018-11-11T07:21:12.849Z,2.97
2018-11-11T07:23:41.552Z,2.37
2018-11-11T07:26:10.212Z,2.37
2018-11-11T07:28:38.822Z,1.93
2018-11-11T07:31:07.950Z,2.23
2018-11-11T07:33:36.608Z,2.13
2018-11-11T07:36:05.796Z,2.00
2018-11-11T07:38:34.444Z,1.50
2018-11-11T07:41:03.111Z,3.03
2018-11-11T07:43:31.881Z,2.77
2018-11-11T07:46:00.513Z,2.20
2018-11-11T07:48:29.146Z,2.30
2018-11-11T07:50:57.831Z,2.60
2018-11-11T07:53:26.504Z,2.80
2018-11-11T07:55:55.283Z,2.87
2018-11-11T07:58:24.025Z,2.83
2018-11-11T08:00:52.725Z,3.60
2018-11-11T08:03:21.348Z,2.30
2018-11-11T08:05:49.920Z,2.90
2018-11-11T08:08:18.605Z,2.00
2018-11-11T08:10:58.538Z,2.47
2018-11-11T08:13:27.233Z,2.07
2018-11-11T08:15:55.998Z,4.20
2018-11-11T08:18:24.623Z,4.53
2018-11-11T08:20:53.283Z,2.90
2018-11-11T08:23:21.947Z,2.70
2018-11-11T08:25:50.639Z,3.17
2018-11-11T08:28:19.257Z,2.60
2018-11-11T08:30:47.894Z,2.60
2018-11-11T08:33:16.521Z,4.53
2018-11-11T08:35:45.129Z,3.33
2018-11-11T08:38:13.788Z,2.33
2018-11-11T08:40:42.640Z,3.23
2018-11-11T08:43:11.174Z,2.30
2018-11-11T08:45:39.874Z,2.67
2018-11-11T08:48:08.515Z,2.97
2018-11-11T08:50:37.157Z,2.80
2018-11-11T08:53:06.004Z,2.90
2018-11-11T08:55:34.703Z,2.93
2018-11-11T08:58:03.442Z,2.27
2018-11-11T09:00:32.035Z,2.50
2018-11-11T09:03:00.784Z,3.93
2018-11-11T09:05:29.424Z,3.03
2018-11-11T09:07:58.049Z,3.27
2018-11-11T09:10:26.711Z,2.97
2018-11-11T09:12:55.373Z,3.20
2018-11-11T09:15:24.264Z,3.20
2018-11-11T09:17:52.930Z,3.00
2018-11-11T09:20:21.581Z,2.10
2018-11-11T09:22:50.238Z,1.90
2018-11-11T09:25:19.183Z,2.50
2018-11-11T09:27:47.952Z,1.90
2018-11-11T09:30:16.651Z,2.10
2018-11-11T09:32:45.290Z,2.30
2018-11-11T09:35:13.993Z,2.17
2018-11-11T09:37:42.681Z,1.83
2018-11-11T09:40:12.388Z,1.47
2018-11-11T09:42:41.122Z,1.93
2018-11-11T09:45:11.654Z,1.30
2018-11-11T09:47:40.509Z,1.70
2018-11-11T09:50:11.277Z,1.67
2018-11-11T09:52:40.243Z,1.60
2018-11-11T09:55:09.884Z,1.60
2018-11-11T09:57:39.026Z,1.70
2018-11-11T10:00:17.241Z,1.20
2018-11-11T10:02:50.677Z,1.33
2018-11-11T10:05:54.793Z,1.50
2018-11-11T10:08:28.081Z,1.50
2018-11-11T10:11:04.397Z,1.80
2018-11-11T10:13:38.395Z,1.50
2018-11-11T10:16:11.894Z,1.30
2018-11-11T10:18:46.210Z,1.53
2018-11-11T10:21:21.396Z,1.20
2018-11-11T10:23:54.627Z,1.13
2018-11-11T10:26:28.603Z,3.10
2018-11-11T10:29:02.796Z,1.73
2018-11-11T10:31:38.329Z,1.70
2018-11-11T10:34:12.261Z,2.03
2018-11-11T10:36:46.229Z,1.90
2018-11-11T10:39:20.313Z,1.90
2018-11-11T10:41:59.908Z,1.50
2018-11-11T10:44:41.400Z,1.80
2018-11-11T10:47:14.622Z,1.30
2018-11-11T10:49:50.037Z,2.07
2018-11-11T10:52:18.684Z,2.40
2018-11-11T10:54:47.417Z,1.10
2018-11-11T10:57:16.064Z,1.47
2018-11-11T10:59:44.709Z,1.43
2018-11-11T11:02:19.395Z,1.10
2018-11-11T11:04:53.472Z,1.33
2018-11-11T11:07:22.122Z,1.60
2018-11-11T11:09:50.775Z,1.23
2018-11-11T11:12:19.429Z,1.40
2018-11-11T11:14:48.087Z,1.50
2018-11-11T11:17:16.760Z,1.37
2018-11-11T11:19:45.399Z,1.60
2018-11-11T11:22:14.060Z,1.60
2018-11-11T11:24:42.839Z,1.47
2018-11-11T11:27:11.561Z,1.00
2018-11-11T11:29:40.149Z,1.27
2018-11-11T11:32:08.871Z,1.17
2018-11-11T11:34:37.524Z,1.10
2018-11-11T11:37:06.183Z,1.63
2018-11-11T11:39:35.001Z,1.17
2018-11-11T11:42:03.661Z,1.43
2018-11-11T11:44:32.321Z,1.10
2018-11-11T11:47:00.958Z,1.33
2018-11-11T11:49:29.754Z,1.10
2018-11-11T11:51:58.442Z,1.40
2018-11-11T11:54:27.076Z,1.30
2018-11-11T11:56:55.963Z,1.43
2018-11-11T11:59:24.633Z,0.93
2018-11-11T12:01:53.366Z,1.20
2018-11-11T12:04:22.008Z,1.20
2018-11-11T12:06:50.664Z,1.63
2018-11-11T12:09:19.450Z,1.17
2018-11-11T12:11:48.065Z,1.50
2018-11-11T12:14:16.784Z,1.53
2018-11-11T12:16:45.566Z,1.40
2018-11-11T12:19:14.059Z,1.30
2018-11-11T12:21:42.723Z,1.33
2018-11-11T12:24:11.390Z,1.23
2018-11-11T12:26:40.015Z,0.90
2018-11-11T12:29:08.638Z,1.20
2018-11-11T12:31:37.449Z,1.30
2018-11-11T12:34:06.248Z,1.33
2018-11-11T12:36:34.912Z,1.13
2018-11-11T12:39:03.806Z,1.70
2018-11-11T12:41:32.468Z,1.10
2018-11-11T12:44:01.167Z,1.50
2018-11-11T12:46:29.846Z,1.00
2018-11-11T12:48:58.512Z,1.70
2018-11-11T12:51:27.137Z,1.50
2018-11-11T12:53:55.797Z,1.00
2018-11-11T12:56:24.491Z,0.90
2018-11-11T12:58:53.281Z,1.00
2018-11-11T13:01:21.951Z,1.40
2018-11-11T13:03:50.561Z,1.37
2018-11-11T13:06:19.232Z,1.10
2018-11-11T13:08:48.048Z,0.93
2018-11-11T13:11:16.722Z,1.30
2018-11-11T13:13:45.407Z,1.87
2018-11-11T13:16:13.997Z,1.43
2018-11-11T13:18:42.660Z,1.33
2018-11-11T13:21:11.297Z,1.60
2018-11-11T13:23:39.933Z,1.33
2018-11-11T13:26:08.670Z,1.73
2018-11-11T13:28:37.278Z,1.50
2018-11-11T13:31:06.306Z,1.37
2018-11-11T13:33:35.003Z,1.57
2018-11-11T13:36:03.773Z,1.90
2018-11-11T13:38:32.472Z,1.90
2018-11-11T13:41:01.092Z,1.47
2018-11-11T13:43:29.729Z,2.00
2018-11-11T13:45:58.386Z,1.50
2018-11-11T13:48:27.057Z,1.80
2018-11-11T13:50:55.828Z,1.80
2018-11-11T13:53:24.474Z,2.20
2018-11-11T13:55:53.164Z,1.90
2018-11-11T13:58:21.943Z,2.07
2018-11-11T14:00:50.650Z,1.70
2018-11-11T14:03:19.295Z,2.33
2018-11-11T14:05:47.901Z,2.30
2018-11-11T14:08:16.637Z,1.60
2018-11-11T14:10:45.351Z,2.40
2018-11-11T14:13:13.982Z,1.50
2018-11-11T14:15:42.602Z,1.90
2018-11-11T14:18:11.439Z,2.10
2018-11-11T14:20:39.960Z,2.17
2018-11-11T14:23:08.593Z,1.73
2018-11-11T14:25:37.279Z,2.10
2018-11-11T14:28:06.418Z,2.27
2018-11-11T14:30:35.113Z,1.70
2018-11-11T14:33:03.818Z,1.53
2018-11-11T14:35:32.473Z,2.80
2018-11-11T14:38:01.130Z,2.93
2018-11-11T14:40:30.546Z,3.03
2018-11-11T14:42:59.211Z,3.27
2018-11-11T14:45:28.029Z,3.30
2018-11-11T14:47:57.402Z,2.30
2018-11-11T14:50:26.492Z,2.30
2018-11-11T14:52:55.272Z,1.70
2018-11-11T14:55:25.302Z,2.97
2018-11-11T14:57:54.048Z,2.37
2018-11-11T15:00:26.838Z,2.17
2018-11-11T15:02:57.563Z,2.70
2018-11-11T15:05:26.260Z,2.10
2018-11-11T15:07:54.931Z,2.57
2018-11-11T15:10:23.552Z,2.10
2018-11-11T15:12:52.250Z,2.30
2018-11-11T15:15:21.978Z,2.30
2018-11-11T15:17:51.322Z,2.07
2018-11-11T15:20:20.058Z,2.30
2018-11-11T15:22:48.850Z,2.40
2018-11-11T15:25:18.742Z,3.30
2018-11-11T15:27:47.656Z,2.77
2018-11-11T15:30:18.643Z,2.83
2018-11-11T15:32:47.660Z,2.60
2018-11-11T15:35:16.348Z,2.20
2018-11-11T15:37:45.266Z,2.50
2018-11-11T15:40:18.903Z,3.33
2018-11-11T15:42:47.594Z,2.73
2018-11-11T15:45:17.651Z,2.53
2018-11-11T15:47:46.281Z,3.40
2018-11-11T15:50:17.665Z,2.37
2018-11-11T15:52:47.759Z,2.97
2018-11-11T15:55:17.190Z,3.20
2018-11-11T15:57:45.812Z,3.40
2018-11-11T16:00:23.059Z,3.97
2018-11-11T16:02:51.665Z,3.43
2018-11-11T16:05:20.837Z,3.10
2018-11-11T16:07:50.421Z,4.90
2018-11-11T16:10:20.436Z,4.40
2018-11-11T16:12:49.292Z,3.87
2018-11-11T16:15:20.248Z,3.90
2018-11-11T16:17:50.634Z,3.83
2018-11-11T16:20:20.729Z,4.90
2018-11-11T16:22:50.685Z,6.00
2018-11-11T16:25:19.358Z,5.00
2018-11-11T16:27:48.517Z,5.63
2018-11-11T16:30:18.848Z,6.37
2018-11-11T16:32:48.234Z,5.20
2018-11-11T16:35:18.056Z,4.00
2018-11-11T16:37:46.672Z,7.27
2018-11-11T16:40:17.517Z,5.00
2018-11-11T16:42:46.713Z,5.20
2018-11-11T16:45:17.854Z,6.03
2018-11-11T16:47:46.482Z,4.30
2018-11-11T16:50:20.225Z,5.07
2018-11-11T16:52:49.660Z,3.50
2018-11-11T16:55:19.675Z,4.43
2018-11-11T16:57:48.229Z,3.80
2018-11-11T17:00:18.349Z,4.03
2018-11-11T17:02:47.583Z,4.00
2018-11-11T17:05:18.687Z,3.50
2018-11-11T17:07:47.714Z,3.33
2018-11-11T17:10:24.268Z,3.87
2018-11-11T17:12:54.036Z,4.13
2018-11-11T17:15:25.192Z,4.23
2018-11-11T17:17:53.803Z,3.90
2018-11-11T17:20:23.314Z,4.40
2018-11-11T17:22:52.750Z,3.40
2018-11-11T17:25:22.526Z,3.13
2018-11-11T17:27:51.189Z,2.83
2018-11-11T17:30:24.161Z,3.40
2018-11-11T17:32:53.228Z,4.50
2018-11-11T17:35:21.966Z,3.70
2018-11-11T17:37:50.625Z,3.33
2018-11-11T17:40:22.034Z,3.27
2018-11-11T17:42:51.554Z,3.90
2018-11-11T17:45:20.369Z,3.80
2018-11-11T17:47:49.793Z,3.70
2018-11-11T17:50:20.909Z,3.80
2018-11-11T17:52:49.615Z,3.50
2018-11-11T17:55:19.639Z,5.10
2018-11-11T17:57:48.253Z,4.60
2018-11-11T18:00:18.277Z,4.70
2018-11-11T18:02:47.013Z,5.80
2018-11-11T18:05:17.132Z,8.40
2018-11-11T18:07:45.947Z,10.70
2018-11-11T18:10:16.766Z,11.13
2018-11-11T18:12:45.429Z,11.93
2018-11-11T18:15:19.405Z,13.80
2018-11-11T18:17:48.057Z,13.50
2018-11-11T18:20:21.188Z,15.17
2018-11-11T18:22:50.581Z,17.07
2018-11-11T18:25:19.235Z,18.67
2018-11-11T18:27:48.097Z,21.90
2018-11-11T18:30:20.508Z,21.13
2018-11-11T18:32:49.276Z,18.73
2018-11-11T18:35:18.550Z,18.53
2018-11-11T18:37:47.327Z,16.00
2018-11-11T18:40:17.502Z,16.20
2018-11-11T18:42:46.151Z,16.50
2018-11-11T18:45:17.008Z,17.83
2018-11-11T18:47:46.241Z,15.70
2018-11-11T18:50:17.520Z,14.67
2018-11-11T18:52:46.201Z,14.10
2018-11-11T18:55:14.867Z,15.60
2018-11-11T18:57:44.117Z,13.70
2018-11-11T19:00:16.137Z,12.40
2018-11-11T19:02:45.893Z,9.77
2018-11-11T19:05:15.545Z,6.53
2018-11-11T19:07:44.481Z,6.00
2018-11-11T19:10:16.572Z,4.80
2018-11-11T19:12:46.204Z,3.63
2018-11-11T19:15:15.808Z,3.23
2018-11-11T19:17:45.098Z,3.83
2018-11-11T19:20:14.971Z,2.37
2018-11-11T19:22:43.758Z,3.90
2018-11-11T19:25:14.553Z,4.13
2018-11-11T19:27:44.283Z,4.03
2018-11-11T19:30:14.143Z,3.60
2018-11-11T19:32:43.315Z,5.53
2018-11-11T19:35:12.884Z,3.33
2018-11-11T19:37:42.261Z,3.33
2018-11-11T19:40:13.472Z,5.20
2018-11-11T19:42:42.369Z,2.77
2018-11-11T19:45:12.269Z,4.23
2018-11-11T19:47:41.481Z,3.10
2018-11-11T19:50:11.966Z,2.80
2018-11-11T19:52:41.915Z,3.67
2018-11-11T19:55:11.516Z,2.80
2018-11-11T19:57:40.293Z,2.13
2018-11-11T20:00:11.423Z,2.03
2018-11-11T20:02:40.634Z,2.60
2018-11-11T20:05:11.073Z,2.50
2018-11-11T20:07:39.848Z,2.40
2018-11-11T20:10:10.687Z,2.30
2018-11-11T20:12:39.659Z,3.27
2018-11-11T20:15:11.924Z,2.43
2018-11-11T20:17:40.640Z,2.30
2018-11-11T20:20:12.230Z,2.20
2018-11-11T20:22:41.163Z,2.40
2018-11-11T20:25:10.888Z,2.47
2018-11-11T20:27:40.016Z,2.23
2018-11-11T20:30:13.119Z,2.33
2018-11-11T20:32:42.293Z,2.47
2018-11-11T20:35:12.578Z,2.37
2018-11-11T20:37:41.223Z,2.67
2018-11-11T20:40:12.141Z,2.60
2018-11-11T20:42:41.173Z,2.30
2018-11-11T20:45:10.733Z,2.80
2018-11-11T20:47:40.190Z,2.67
2018-11-11T20:50:12.073Z,3.03
2018-11-11T20:52:42.190Z,3.47
2018-11-11T20:55:11.484Z,4.07
2018-11-11T20:57:40.461Z,3.93
2018-11-11T21:00:11.337Z,5.27
2018-11-11T21:02:40.225Z,4.60
2018-11-11T21:05:10.933Z,3.90
2018-11-11T21:07:39.742Z,3.90
2018-11-11T21:10:11.155Z,3.73
2018-11-11T21:12:39.719Z,4.23
2018-11-11T21:15:10.549Z,4.03
2018-11-11T21:17:39.210Z,3.73
2018-11-11T21:20:09.397Z,4.47
2018-11-11T21:22:38.224Z,4.40
2018-11-11T21:25:07.395Z,4.90
2018-11-11T21:27:36.972Z,5.70
2018-11-11T21:30:07.979Z,5.47
2018-11-11T21:32:36.640Z,4.70
2018-11-11T21:35:05.249Z,5.10
2018-11-11T21:37:33.921Z,5.10
2018-11-11T21:40:03.601Z,6.07
2018-11-11T21:42:32.254Z,7.50
2018-11-11T21:45:00.873Z,7.63
2018-11-11T21:47:29.610Z,10.33
2018-11-11T21:49:58.217Z,11.20
2018-11-11T21:52:26.866Z,10.73
2018-11-11T21:54:55.560Z,12.17
2018-11-11T21:57:24.230Z,13.00
2018-11-11T21:59:52.924Z,14.20
2018-11-11T22:02:21.580Z,14.10
2018-11-11T22:04:50.219Z,13.40
2018-11-11T22:07:19.057Z,16.17
2018-11-11T22:09:47.724Z,17.27
2018-11-11T22:12:16.353Z,18.53
2018-11-11T22:14:45.022Z,17.87
2018-11-11T22:17:13.709Z,20.53
2018-11-11T22:19:42.370Z,23.17
2018-11-11T22:22:11.088Z,24.30
2018-11-11T22:24:39.733Z,26.47
2018-11-11T22:27:08.429Z,25.80
2018-11-11T22:29:37.187Z,30.93
2018-11-11T22:32:06.165Z,30.77
2018-11-11T22:34:34.807Z,32.87
2018-11-11T22:37:03.564Z,30.50
2018-11-11T22:39:32.215Z,32.37
2018-11-11T22:42:00.826Z,32.93
2018-11-11T22:44:29.607Z,34.00
2018-11-11T22:46:58.186Z,33.43
2018-11-11T22:49:26.825Z,35.00
2018-11-11T22:51:55.452Z,34.97
2018-11-11T22:54:24.107Z,33.90
2018-11-11T22:56:52.753Z,32.73
2018-11-11T22:59:21.352Z,33.37
2018-11-11T23:01:49.993Z,31.33
2018-11-11T23:04:18.692Z,32.27
2018-11-11T23:06:47.401Z,32.00
2018-11-11T23:09:16.042Z,30.97
2018-11-11T23:11:44.668Z,28.40
2018-11-11T23:14:13.388Z,29.80
2018-11-11T23:16:41.982Z,26.20
2018-11-11T23:19:10.633Z,26.30
2018-11-11T23:21:39.297Z,26.93
2018-11-11T23:24:07.991Z,24.80
2018-11-11T23:26:36.632Z,22.70
2018-11-11T23:29:05.328Z,21.50
2018-11-11T23:31:34.069Z,21.07
2018-11-11T23:34:02.684Z,20.83
2018-11-11T23:36:31.287Z,21.67
2018-11-11T23:38:59.941Z,20.30
2018-11-11T23:41:28.633Z,19.10
2018-11-11T23:43:57.244Z,20.90
2018-11-11T23:46:25.851Z,20.50
2018-11-11T23:48:54.502Z,20.03
2018-11-11T23:51:23.162Z,21.33
2018-11-11T23:53:51.817Z,22.40
2018-11-11T23:56:20.421Z,22.87
2018-11-11T23:58:49.089Z,20.10
